Time;durP1;ratioP1;P1;durP2;ratioP2;P2;SDS_P1;SDS_P2;PMS_P1;PMS_P2;Temp;Humidity;BMP_temperature;BMP_pressure;BME280_temperature;BME280_humidity;BME280_pressure;Samples;Min_cycle;Max_cycle;Signal;HPM_P1;HPM_P2
2022/10/31 00:02:11;;;;;;;250.45;55.72;;;12.10;99.90;;;;;;5067429;28;20244;-53
2022/10/31 00:04:37;;;;;;;247.80;49.67;;;12.20;99.90;;;;;;5020744;28;20458;-53
2022/10/31 00:07:02;;;;;;;251.60;54.08;;;12.10;99.90;;;;;;5074314;28;20103;-54
2022/10/31 00:09:28;;;;;;;260.95;55.08;;;12.20;99.90;;;;;;5084259;28;20041;-54
2022/10/31 00:11:54;;;;;;;276.02;57.13;;;12.30;99.90;;;;;;5073398;28;20048;-54
2022/10/31 00:14:19;;;;;;;230.55;52.40;;;12.40;99.90;;;;;;5105042;28;20064;-53
2022/10/31 00:16:45;;;;;;;173.57;54.03;;;12.40;99.90;;;;;;5072314;28;20028;-54
2022/10/31 00:19:11;;;;;;;286.25;55.90;;;12.50;99.90;;;;;;5101206;28;20045;-53
2022/10/31 00:21:36;;;;;;;204.55;53.50;;;12.60;99.90;;;;;;5081951;28;20029;-53
2022/10/31 00:24:03;;;;;;;205.95;55.15;;;;;;;;;;5067821;28;20097;-53
2022/10/31 00:26:29;;;;;;;207.73;53.42;;;;;;;;;;5070160;28;20033;-53
2022/10/31 00:28:56;;;;;;;224.27;53.65;;;12.80;99.90;;;;;;5069034;28;20123;-53
2022/10/31 00:31:21;;;;;;;282.95;58.53;;;12.70;99.90;;;;;;5069855;28;20089;-53
2022/10/31 00:33:47;;;;;;;275.85;56.78;;;12.90;99.90;;;;;;5071804;28;20456;-54
2022/10/31 00:36:16;;;;;;;236.63;56.60;;;12.80;99.90;;;;;;5102900;28;20041;-53
2022/10/31 00:38:42;;;;;;;238.85;55.53;;;13.00;99.90;;;;;;5073742;28;20024;-53
2022/10/31 00:41:12;;;;;;;207.23;52.35;;;13.00;99.90;;;;;;5074576;28;20040;-53
2022/10/31 00:43:38;;;;;;;229.88;53.22;;;12.90;99.90;;;;;;5069747;28;20035;-53
2022/10/31 00:46:04;;;;;;;262.52;51.90;;;13.00;99.90;;;;;;5071563;28;20028;-53
2022/10/31 00:48:30;;;;;;;255.73;54.70;;;12.90;99.90;;;;;;5032760;28;20051;-53
2022/10/31 00:50:56;;;;;;;268.23;53.33;;;13.20;99.90;;;;;;5061937;28;20025;-54
2022/10/31 00:53:22;;;;;;;138.70;48.28;;;13.00;99.90;;;;;;5069627;28;20055;-53
2022/10/31 00:55:48;;;;;;;380.42;58.72;;;13.10;99.90;;;;;;5074493;28;20409;-53
2022/10/31 00:58:13;;;;;;;240.63;53.15;;;13.10;99.90;;;;;;5052131;28;20052;-53
2022/10/31 01:00:39;;;;;;;202.40;51.13;;;12.90;99.90;;;;;;5065721;28;20392;-53
2022/10/31 01:03:05;;;;;;;222.80;52.83;;;13.20;99.90;;;;;;5104656;28;20031;-53
2022/10/31 01:05:31;;;;;;;487.60;64.10;;;13.20;99.90;;;;;;5066541;28;20078;-53
2022/10/31 01:07:57;;;;;;;276.02;53.35;;;13.10;99.90;;;;;;5072103;28;20040;-53
2022/10/31 01:10:23;;;;;;;198.05;46.67;;;13.00;99.90;;;;;;5068954;28;20042;-53
2022/10/31 01:12:49;;;;;;;210.95;51.28;;;12.90;99.90;;;;;;5086773;28;20040;-53
2022/10/31 01:15:19;;;;;;;235.93;50.13;;;12.80;99.90;;;;;;5068485;28;20028;-53
2022/10/31 01:17:45;;;;;;;164.98;50.33;;;12.70;99.90;;;;;;5067713;28;20032;-54
2022/10/31 01:20:13;;;;;;;156.18;46.60;;;12.70;99.90;;;;;;5072053;28;20016;-53
2022/10/31 01:22:38;;;;;;;139.35;49.10;;;12.80;99.90;;;;;;5072043;28;20130;-53
2022/10/31 01:25:05;;;;;;;134.32;47.55;;;12.80;99.90;;;;;;5068405;28;20025;-53
2022/10/31 01:27:31;;;;;;;142.57;46.10;;;13.00;99.90;;;;;;5019050;28;20558;-54
2022/10/31 01:29:57;;;;;;;198.52;48.22;;;13.10;99.90;;;;;;5069087;28;20021;-53
2022/10/31 01:32:23;;;;;;;154.95;45.08;;;12.90;99.90;;;;;;5104173;28;20058;-53
2022/10/31 01:34:49;;;;;;;310.95;49.17;;;12.80;99.90;;;;;;5048866;28;20178;-54
2022/10/31 01:37:14;;;;;;;254.98;46.15;;;12.60;99.90;;;;;;5086991;28;20498;-53
2022/10/31 01:39:40;;;;;;;278.13;46.75;;;12.50;99.90;;;;;;5071440;28;20180;-53
2022/10/31 01:42:06;;;;;;;203.40;44.08;;;12.30;99.90;;;;;;5038975;28;20033;-53
2022/10/31 01:44:31;;;;;;;159.85;45.65;;;12.30;99.90;;;;;;5066105;28;20039;-53
2022/10/31 01:47:19;;;;;;;208.63;44.00;;;12.30;99.90;;;;;;5070447;28;20086;-54
2022/10/31 01:50:01;;;;;;;223.93;43.17;;;12.10;99.90;;;;;;5072038;28;20112;-53
2022/10/31 01:52:40;;;;;;;228.00;43.63;;;12.10;99.90;;;;;;5066799;28;20029;-54
2022/10/31 01:55:41;;;;;;;155.93;42.83;;;12.10;99.90;;;;;;5071456;28;20033;-54
2022/10/31 01:58:12;;;;;;;355.17;45.92;;;12.30;99.90;;;;;;5005826;28;20053;-53
2022/10/31 02:00:39;;;;;;;186.70;38.45;;;;;;;;;;5005019;28;20041;-53
2022/10/31 02:03:05;;;;;;;259.77;39.50;;;;;;;;;;5000342;28;20237;-54
2022/10/31 02:05:31;;;;;;;277.17;41.78;;;11.90;99.90;;;;;;5008075;28;20030;-52
2022/10/31 02:08:03;;;;;;;257.05;40.95;;;11.90;99.90;;;;;;5007598;28;20120;-54
2022/10/31 02:10:32;;;;;;;151.75;38.65;;;11.90;99.90;;;;;;5008339;28;20180;-53
2022/10/31 02:13:01;;;;;;;217.05;38.53;;;11.90;99.90;;;;;;5004279;28;20112;-53
2022/10/31 02:15:29;;;;;;;172.65;40.03;;;12.00;99.90;;;;;;5003651;28;20049;-53
2022/10/31 02:17:55;;;;;;;201.70;38.95;;;11.90;99.90;;;;;;4993272;28;20038;-53
2022/10/31 02:20:24;;;;;;;85.50;37.42;;;12.00;99.90;;;;;;5006956;28;20175;-54
2022/10/31 02:23:30;;;;;;;220.88;39.30;;;12.30;99.90;;;;;;5008293;28;20122;-53
2022/10/31 02:26:07;;;;;;;177.02;36.42;;;12.30;99.90;;;;;;4996704;28;20457;-53
2022/10/31 02:29:04;;;;;;;127.40;36.70;;;12.10;99.90;;;;;;5009016;28;20030;-53
2022/10/31 02:31:45;;;;;;;113.72;33.92;;;12.20;99.90;;;;;;5005537;28;20104;-53
2022/10/31 02:34:34;;;;;;;151.93;35.30;;;12.10;99.90;;;;;;5028784;28;20138;-53
2022/10/31 02:37:39;;;;;;;171.98;34.53;;;12.10;99.90;;;;;;5046945;28;20079;-53
2022/10/31 02:40:25;;;;;;;113.82;34.42;;;11.70;99.90;;;;;;5046033;28;20064;-53
2022/10/31 02:43:14;;;;;;;161.15;37.13;;;11.70;99.90;;;;;;5045753;28;20488;-53
2022/10/31 02:46:03;;;;;;;134.20;38.03;;;11.40;99.90;;;;;;5050290;28;20500;-53
2022/10/31 02:48:35;;;;;;;150.82;34.50;;;11.50;99.90;;;;;;5050665;28;20045;-52
2022/10/31 02:51:02;;;;;;;161.93;36.43;;;11.60;99.90;;;;;;5042236;28;20096;-52
2022/10/31 02:53:33;;;;;;;214.32;37.45;;;11.40;99.90;;;;;;5048208;28;20029;-52
2022/10/31 02:56:20;;;;;;;134.60;35.08;;;11.50;99.90;;;;;;5050274;28;20064;-52
2022/10/31 02:58:54;;;;;;;200.60;37.05;;;11.60;99.90;;;;;;5069114;28;20056;-52
2022/10/31 03:01:34;;;;;;;187.38;41.53;;;;;;;;;;5064917;28;20028;-52
2022/10/31 03:04:34;;;;;;;109.15;36.58;;;11.40;99.90;;;;;;5072167;28;20085;-52
2022/10/31 03:07:14;;;;;;;195.68;36.25;;;;;;;;;;5068961;28;20161;-52
2022/10/31 03:09:52;;;;;;;223.10;40.08;;;;;;;;;;5071305;28;20124;-53
2022/10/31 03:12:35;;;;;;;208.20;38.03;;;11.40;99.90;;;;;;5075013;28;20024;-52
2022/10/31 03:15:23;;;;;;;206.93;40.85;;;11.10;99.90;;;;;;5073518;28;20055;-53
2022/10/31 03:17:56;;;;;;;160.23;39.70;;;11.20;99.90;;;;;;5068507;28;20033;-53
2022/10/31 03:20:27;;;;;;;135.18;39.95;;;11.40;99.90;;;;;;5070785;28;20033;-53
2022/10/31 03:22:56;;;;;;;136.27;38.92;;;11.60;99.90;;;;;;5069831;28;20039;-53
2022/10/31 03:25:22;;;;;;;152.07;37.75;;;12.00;99.90;;;;;;5073173;28;20047;-53
2022/10/31 03:27:51;;;;;;;210.52;37.67;;;11.70;99.90;;;;;;5071893;28;20094;-52
2022/10/31 03:30:17;;;;;;;306.65;45.45;;;11.50;99.90;;;;;;5072360;28;20119;-53
2022/10/31 03:32:53;;;;;;;131.75;38.75;;;11.70;99.90;;;;;;5076133;28;20491;-53
2022/10/31 03:35:22;;;;;;;158.35;39.15;;;12.00;99.90;;;;;;5055927;28;20040;-52
2022/10/31 03:37:51;;;;;;;191.10;40.67;;;12.10;99.90;;;;;;5071766;28;20032;-53
2022/10/31 03:40:20;;;;;;;286.70;44.25;;;12.00;99.90;;;;;;5072370;28;20025;-52
2022/10/31 03:42:53;;;;;;;172.02;40.00;;;12.00;99.90;;;;;;5076303;28;20079;-53
2022/10/31 03:45:26;;;;;;;124.40;38.63;;;12.00;99.90;;;;;;5070683;28;20043;-53
2022/10/31 03:47:53;;;;;;;170.85;38.17;;;12.20;99.90;;;;;;5073058;28;20040;-53
2022/10/31 03:50:20;;;;;;;155.20;40.53;;;;;;;;;;5071384;28;20468;-52
2022/10/31 03:52:47;;;;;;;99.75;37.92;;;;;;;;;;5073231;28;20107;-53
2022/10/31 03:55:23;;;;;;;123.50;38.13;;;11.90;99.90;;;;;;5070169;28;20064;-53
2022/10/31 03:58:32;;;;;;;88.47;36.83;;;12.10;99.90;;;;;;5067713;28;20044;-53
2022/10/31 04:01:01;;;;;;;81.07;37.45;;;12.20;99.90;;;;;;5054573;28;20041;-53
2022/10/31 04:03:30;;;;;;;119.93;38.55;;;12.20;99.90;;;;;;5061507;28;20036;-53
2022/10/31 04:06:01;;;;;;;152.77;34.40;;;12.10;99.90;;;;;;5063692;28;20462;-53
2022/10/31 04:08:31;;;;;;;133.60;40.03;;;11.70;99.90;;;;;;5061712;28;20041;-53
2022/10/31 04:10:58;;;;;;;84.38;39.35;;;11.70;99.90;;;;;;5055184;28;20037;-53
2022/10/31 04:13:28;;;;;;;85.63;36.97;;;11.90;99.90;;;;;;5059260;28;20033;-53
2022/10/31 04:15:55;;;;;;;79.40;37.35;;;12.00;99.90;;;;;;5054685;28;20546;-53
2022/10/31 04:18:24;;;;;;;131.30;38.08;;;12.10;99.90;;;;;;5064819;28;20120;-53
2022/10/31 04:21:03;;;;;;;103.22;40.40;;;11.90;99.90;;;;;;5063677;28;20033;-53
2022/10/31 04:23:30;;;;;;;113.55;39.22;;;11.90;99.90;;;;;;5055149;28;20503;-53
2022/10/31 04:25:56;;;;;;;69.03;36.58;;;12.10;99.90;;;;;;5053368;28;20025;-53
2022/10/31 04:28:21;;;;;;;87.65;36.35;;;12.30;99.90;;;;;;5002936;28;20450;-53
2022/10/31 04:30:47;;;;;;;115.07;35.40;;;12.40;99.90;;;;;;5017792;28;20056;-53
2022/10/31 04:33:13;;;;;;;140.00;37.15;;;12.30;99.90;;;;;;5060412;28;20070;-53
2022/10/31 04:35:38;;;;;;;101.53;37.00;;;12.00;99.90;;;;;;5062608;28;20040;-53
2022/10/31 04:38:04;;;;;;;175.27;37.60;;;12.10;99.90;;;;;;5070099;28;20068;-53
2022/10/31 04:40:30;;;;;;;110.18;35.65;;;12.00;99.90;;;;;;5069536;28;20089;-53
2022/10/31 04:42:56;;;;;;;110.05;37.65;;;11.90;99.90;;;;;;5086718;28;20033;-53
2022/10/31 04:45:21;;;;;;;225.63;39.13;;;11.80;99.90;;;;;;5074700;28;20548;-53
2022/10/31 04:47:47;;;;;;;80.93;33.92;;;11.80;99.90;;;;;;5053493;28;20051;-53
2022/10/31 04:50:13;;;;;;;80.20;33.13;;;11.90;99.90;;;;;;5067290;28;20025;-53
2022/10/31 04:52:41;;;;;;;123.22;34.03;;;11.90;99.90;;;;;;5066271;28;20033;-53
2022/10/31 04:55:07;;;;;;;147.77;34.33;;;11.80;99.90;;;;;;5074962;28;20032;-53
2022/10/31 04:57:43;;;;;;;111.10;34.65;;;11.70;99.90;;;;;;5072092;28;20074;-53
2022/10/31 05:00:11;;;;;;;166.75;35.15;;;11.70;99.90;;;;;;5070254;28;20020;-53
2022/10/31 05:02:50;;;;;;;62.00;33.08;;;11.70;99.90;;;;;;5052977;28;20040;-53
2022/10/31 05:05:18;;;;;;;101.45;32.65;;;11.60;99.90;;;;;;5067649;28;20518;-53
2022/10/31 05:07:45;;;;;;;137.50;33.47;;;11.70;99.90;;;;;;5072369;28;20040;-53
2022/10/31 05:10:18;;;;;;;145.23;31.38;;;11.70;99.90;;;;;;5068897;28;20115;-53
2022/10/31 05:12:55;;;;;;;141.40;31.75;;;11.60;99.90;;;;;;5051772;28;20119;-53
2022/10/31 05:15:22;;;;;;;64.97;31.67;;;11.50;99.90;;;;;;5046837;28;20128;-53
2022/10/31 05:17:48;;;;;;;138.68;31.60;;;11.70;99.90;;;;;;5049717;28;20103;-53
2022/10/31 05:20:16;;;;;;;85.90;31.33;;;11.90;99.90;;;;;;5047906;28;20049;-53
2022/10/31 05:22:46;;;;;;;138.95;33.53;;;11.80;99.90;;;;;;5047229;28;20065;-53
2022/10/31 05:25:12;;;;;;;181.68;32.92;;;11.50;99.90;;;;;;5049774;28;20029;-53
2022/10/31 05:27:42;;;;;;;176.65;30.73;;;11.80;99.90;;;;;;5026847;28;20108;-53
2022/10/31 05:30:09;;;;;;;126.50;32.67;;;11.80;99.90;;;;;;5025224;28;20044;-53
2022/10/31 05:32:43;;;;;;;83.97;32.83;;;12.30;99.90;;;;;;5014780;28;20038;-53
2022/10/31 05:35:13;;;;;;;111.13;32.28;;;12.00;99.90;;;;;;5024917;28;20034;-53
2022/10/31 05:37:39;;;;;;;71.53;31.23;;;12.00;99.90;;;;;;5029391;28;20041;-53
2022/10/31 05:40:07;;;;;;;123.00;32.33;;;12.10;99.90;;;;;;5026472;28;20037;-53
2022/10/31 05:42:32;;;;;;;163.60;33.58;;;11.80;99.90;;;;;;4995616;28;20041;-53
2022/10/31 05:44:58;;;;;;;89.63;35.33;;;11.90;99.90;;;;;;5055244;28;20102;-53
2022/10/31 05:47:24;;;;;;;72.03;32.42;;;12.10;99.90;;;;;;5062984;28;20496;-53
2022/10/31 05:49:50;;;;;;;58.28;31.60;;;12.30;99.90;;;;;;5059850;28;20431;-53
2022/10/31 05:52:16;;;;;;;79.93;31.75;;;12.30;99.90;;;;;;5058825;28;20025;-52
2022/10/31 05:54:42;;;;;;;72.68;30.50;;;12.40;99.90;;;;;;5049783;28;20055;-53
2022/10/31 05:57:08;;;;;;;129.43;30.15;;;12.50;99.90;;;;;;5046542;28;20483;-53
2022/10/31 05:59:33;;;;;;;106.68;31.02;;;12.30;99.90;;;;;;5051058;28;20082;-53
2022/10/31 06:01:59;;;;;;;75.25;31.35;;;12.20;99.90;;;;;;5086333;28;20073;-53
2022/10/31 06:04:25;;;;;;;113.97;31.98;;;12.30;99.90;;;;;;5076846;28;20034;-53
2022/10/31 06:06:51;;;;;;;104.95;31.35;;;12.40;99.90;;;;;;5083134;28;20029;-55
2022/10/31 06:09:16;;;;;;;99.30;30.52;;;12.40;99.90;;;;;;5067522;28;20041;-56
2022/10/31 06:11:42;;;;;;;64.40;30.90;;;12.40;99.90;;;;;;5065868;28;20032;-56
2022/10/31 06:14:08;;;;;;;99.55;30.45;;;12.30;99.90;;;;;;5072728;28;20111;-57
2022/10/31 06:16:33;;;;;;;98.63;31.42;;;12.30;99.90;;;;;;5065348;28;20028;-59
2022/10/31 06:18:59;;;;;;;78.25;29.23;;;12.30;99.90;;;;;;5067077;28;20021;-57
2022/10/31 06:21:25;;;;;;;84.57;30.65;;;12.80;99.90;;;;;;5087432;28;20032;-57
2022/10/31 06:23:50;;;;;;;117.90;29.10;;;12.50;99.90;;;;;;5070128;28;20166;-56
2022/10/31 06:26:16;;;;;;;115.53;28.05;;;12.70;99.90;;;;;;5063712;28;20028;-54
2022/10/31 06:28:42;;;;;;;129.43;28.60;;;12.60;99.90;;;;;;5076442;28;20376;-58
2022/10/31 06:31:08;;;;;;;49.22;28.48;;;12.60;99.90;;;;;;5072407;28;20033;-58
2022/10/31 06:33:34;;;;;;;80.60;27.70;;;12.60;99.90;;;;;;5072591;28;20036;-57
2022/10/31 06:36:00;;;;;;;63.53;29.75;;;12.40;99.90;;;;;;5067710;28;20017;-55
2022/10/31 06:38:27;;;;;;;113.45;28.33;;;12.40;99.90;;;;;;5067029;28;20037;-55
2022/10/31 06:40:53;;;;;;;53.42;29.60;;;12.30;99.90;;;;;;5068031;28;20078;-55
2022/10/31 06:43:20;;;;;;;99.35;28.65;;;12.50;99.90;;;;;;5053946;28;20480;-58
2022/10/31 06:45:46;;;;;;;99.68;28.88;;;12.30;99.90;;;;;;5067660;28;20031;-56
2022/10/31 06:48:11;;;;;;;58.63;28.80;;;12.30;99.90;;;;;;5066854;28;20041;-55
2022/10/31 06:50:37;;;;;;;134.27;26.17;;;12.40;99.90;;;;;;5069357;28;20071;-56
2022/10/31 06:56:24;;;;;;;106.78;29.83;;;12.30;99.90;;;;;;5072083;28;20616;-57
2022/10/31 07:02:26;;;;;;;86.05;29.00;;;12.40;99.90;;;;;;5070851;28;20093;-55
2022/10/31 07:08:27;;;;;;;104.93;29.67;;;12.40;99.90;;;;;;5070535;28;20052;-54
2022/10/31 07:14:27;;;;;;;77.65;30.15;;;12.40;99.90;;;;;;5067792;28;20170;-56
2022/10/31 07:20:28;;;;;;;62.63;28.77;;;12.40;99.90;;;;;;5072725;28;20432;-58
2022/10/31 07:26:29;;;;;;;82.00;31.02;;;12.70;99.90;;;;;;5072427;28;20039;-58
2022/10/31 07:32:50;;;;;;;115.30;31.23;;;12.40;99.90;;;;;;5063565;28;20099;-56
2022/10/31 07:38:50;;;;;;;65.43;31.15;;;12.70;99.90;;;;;;5066879;28;20159;-56
2022/10/31 07:44:51;;;;;;;65.60;31.90;;;13.00;99.90;;;;;;5072147;28;20106;-55
2022/10/31 07:50:53;;;;;;;46.78;30.33;;;;;;;;;;5072799;28;20075;-57
2022/10/31 07:56:53;;;;;;;93.70;30.42;;;13.00;99.90;;;;;;5072605;28;20063;-56
2022/10/31 08:03:09;;;;;;;58.03;33.53;;;12.90;99.90;;;;;;5067359;28;20498;-54
2022/10/31 08:05:36;;;;;;;56.35;37.58;;;13.70;99.90;;;;;;5069133;28;20377;-56
2022/10/31 08:08:03;;;;;;;56.05;28.30;;;13.20;99.90;;;;;;5073574;28;21199;-54
2022/10/31 08:10:29;;;;;;;51.78;29.73;;;13.30;99.90;;;;;;5072547;28;20040;-55
2022/10/31 08:13:13;;;;;;;39.60;28.75;;;13.50;99.90;;;;;;5072251;28;20147;-54
2022/10/31 08:15:41;;;;;;;42.83;28.83;;;13.60;99.90;;;;;;5068912;28;20549;-55
2022/10/31 08:18:14;;;;;;;43.58;29.02;;;13.70;99.90;;;;;;5070286;28;20032;-54
2022/10/31 08:20:40;;;;;;;62.78;29.13;;;;;;;;;;5067748;28;20124;-54
2022/10/31 08:23:06;;;;;;;33.72;26.92;;;14.00;99.90;;;;;;5086810;28;20043;-54
2022/10/31 08:25:33;;;;;;;51.97;29.27;;;14.20;99.90;;;;;;5094574;28;20037;-51
2022/10/31 08:28:00;;;;;;;54.22;27.95;;;;;;;;;;5070423;28;20052;-52
2022/10/31 08:30:28;;;;;;;37.25;29.40;;;14.50;99.90;;;;;;5070259;28;20040;-54
2022/10/31 08:33:02;;;;;;;35.88;28.13;;;14.60;99.90;;;;;;5072854;28;20032;-53
2022/10/31 08:35:28;;;;;;;41.35;29.75;;;14.00;99.90;;;;;;5076714;28;20094;-51
2022/10/31 08:37:55;;;;;;;37.95;29.00;;;14.00;99.90;;;;;;5071880;28;20033;-55
2022/10/31 08:40:22;;;;;;;47.28;28.77;;;14.40;99.90;;;;;;5072203;28;20032;-55
2022/10/31 08:42:47;;;;;;;40.55;29.40;;;14.20;99.90;;;;;;5075958;28;20051;-55
2022/10/31 08:45:13;;;;;;;35.63;27.85;;;14.30;99.90;;;;;;5084585;28;20054;-55
2022/10/31 08:47:39;;;;;;;39.13;28.23;;;14.50;99.90;;;;;;5084550;28;20059;-55
2022/10/31 08:50:05;;;;;;;37.55;30.67;;;14.30;99.90;;;;;;5073395;28;20058;-55
2022/10/31 08:52:31;;;;;;;38.83;28.95;;;14.30;99.90;;;;;;5050901;28;20040;-55
2022/10/31 08:54:56;;;;;;;91.32;30.13;;;14.60;99.90;;;;;;5073110;28;20463;-55
2022/10/31 08:57:22;;;;;;;60.60;29.67;;;14.30;99.90;;;;;;5071279;28;20086;-55
2022/10/31 08:59:48;;;;;;;40.78;30.77;;;14.20;99.90;;;;;;5067861;28;20032;-54
2022/10/31 09:02:14;;;;;;;42.17;31.42;;;14.10;99.90;;;;;;5072295;28;20060;-50
2022/10/31 09:04:39;;;;;;;48.83;31.75;;;14.90;99.90;;;;;;5088645;28;20032;-51
2022/10/31 09:07:05;;;;;;;40.42;31.02;;;14.50;99.90;;;;;;5071659;28;20191;-53
2022/10/31 09:09:31;;;;;;;38.80;30.42;;;15.00;99.90;;;;;;5069807;28;20064;-52
2022/10/31 09:11:56;;;;;;;40.70;31.35;;;14.20;99.90;;;;;;5071909;28;20040;-54
2022/10/31 09:14:22;;;;;;;45.70;32.58;;;14.70;99.90;;;;;;5086890;28;20052;-53
2022/10/31 09:16:48;;;;;;;143.88;101.75;;;15.00;99.90;;;;;;5072076;28;20032;-54
2022/10/31 09:19:14;;;;;;;59.92;42.00;;;;;;;;;;5073958;28;20028;-54
2022/10/31 09:21:40;;;;;;;39.17;27.20;;;15.00;99.90;;;;;;5071237;28;20028;-53
2022/10/31 09:24:06;;;;;;;39.88;26.67;;;15.20;99.90;;;;;;5071985;28;20094;-55
2022/10/31 09:26:33;;;;;;;44.70;29.45;;;14.70;99.90;;;;;;5072091;28;20048;-55
2022/10/31 09:29:01;;;;;;;41.70;31.27;;;14.70;99.90;;;;;;5085754;28;20408;-53
2022/10/31 09:31:28;;;;;;;63.65;49.75;;;15.10;99.90;;;;;;5070213;28;20055;-55
2022/10/31 09:33:54;;;;;;;41.67;30.08;;;15.10;99.90;;;;;;5069913;28;20032;-52
2022/10/31 09:36:20;;;;;;;38.63;31.60;;;;;;;;;;5073653;28;20074;-52
2022/10/31 09:38:46;;;;;;;42.28;34.15;;;15.70;99.90;;;;;;5086781;28;20037;-55
2022/10/31 09:41:29;;;;;;;35.05;30.58;;;15.80;99.90;;;;;;5070184;28;20046;-50
2022/10/31 09:44:17;;;;;;;40.55;31.65;;;15.60;99.90;;;;;;5064310;28;20494;-49
2022/10/31 09:47:03;;;;;;;43.35;33.78;;;15.40;99.90;;;;;;5072268;28;20099;-52
2022/10/31 09:50:06;;;;;;;40.10;31.90;;;15.60;99.90;;;;;;5073199;28;20044;-54
2022/10/31 09:52:38;;;;;;;41.72;32.58;;;15.70;99.90;;;;;;5068507;28;20035;-54
2022/10/31 09:55:23;;;;;;;42.42;32.92;;;15.60;99.90;;;;;;5066177;28;20055;-54
2022/10/31 09:57:49;;;;;;;42.63;34.22;;;15.70;99.90;;;;;;5064310;28;20045;-52
2022/10/31 10:00:19;;;;;;;43.20;33.53;;;15.80;99.90;;;;;;5072185;28;20487;-51
2022/10/31 10:02:59;;;;;;;41.63;34.28;;;15.90;99.90;;;;;;5071677;28;20032;-52
2022/10/31 10:05:51;;;;;;;65.55;47.05;;;16.20;99.90;;;;;;5067848;28;20383;-52
2022/10/31 10:08:19;;;;;;;45.63;34.30;;;16.10;99.90;;;;;;5070855;28;20037;-53
2022/10/31 10:10:50;;;;;;;42.83;34.13;;;15.90;99.90;;;;;;5071886;28;20028;-52
2022/10/31 10:13:16;;;;;;;42.10;32.58;;;15.80;99.90;;;;;;5070620;28;20090;-52
2022/10/31 10:16:05;;;;;;;36.95;27.33;;;15.70;99.90;;;;;;5069373;28;20032;-53
2022/10/31 10:18:37;;;;;;;42.35;31.80;;;15.70;99.90;;;;;;5062105;28;20037;-54
2022/10/31 10:21:15;;;;;;;43.83;33.38;;;15.80;99.90;;;;;;5086067;28;20045;-52
2022/10/31 10:24:10;;;;;;;43.47;35.80;;;16.10;99.90;;;;;;5068548;28;20052;-54
2022/10/31 10:26:38;;;;;;;38.60;33.03;;;16.40;99.90;;;;;;5081503;28;20496;-54
2022/10/31 10:29:17;;;;;;;38.50;32.53;;;;;;;;;;5065191;28;20046;-53
2022/10/31 10:31:46;;;;;;;42.38;34.70;;;16.90;99.90;;;;;;5064193;28;20360;-54
2022/10/31 10:34:29;;;;;;;45.85;35.63;;;16.80;99.90;;;;;;5069027;28;20063;-53
2022/10/31 10:37:03;;;;;;;;;;;16.50;99.90;;;;;;5068819;28;20033;-51
2022/10/31 10:39:31;;;;;;;45.83;36.55;;;;;;;;;;5067268;28;19909;-52
2022/10/31 10:47:41;;;;;;;44.40;36.70;;;16.30;99.90;;;;;;5069422;28;20052;-52
2022/10/31 10:50:32;;;;;;;50.50;39.72;;;16.60;99.90;;;;;;5068337;28;20075;-54
2022/10/31 10:53:21;;;;;;;46.22;36.45;;;16.70;99.90;;;;;;5068970;28;20059;-54
2022/10/31 10:55:55;;;;;;;45.05;36.75;;;16.70;99.90;;;;;;5070863;28;20429;-54
2022/10/31 10:58:21;;;;;;;44.70;35.95;;;16.80;99.90;;;;;;5069376;28;20563;-52
2022/10/31 11:00:49;;;;;;;41.78;33.72;;;16.90;99.90;;;;;;5071764;28;20111;-55
2022/10/31 11:03:15;;;;;;;38.22;32.85;;;17.50;99.90;;;;;;5071192;28;20047;-56
2022/10/31 11:05:52;;;;;;;37.13;31.30;;;;;;;;;;5068480;28;20033;-51
2022/10/31 11:08:25;;;;;;;36.58;30.52;;;18.40;99.90;;;;;;5069427;28;20047;-55
2022/10/31 11:11:17;;;;;;;42.38;32.58;;;18.40;99.90;;;;;;5085542;28;20048;-55
2022/10/31 11:13:45;;;;;;;37.15;31.38;;;19.40;99.90;;;;;;5067291;28;20435;-55
2022/10/31 11:16:26;;;;;;;36.63;30.73;;;20.00;99.90;;;;;;5072095;28;20039;-51
2022/10/31 11:18:52;;;;;;;35.35;30.63;;;20.50;99.90;;;;;;5070320;28;20421;-52
2022/10/31 11:21:28;;;;;;;33.90;29.50;;;20.80;99.90;;;;;;5070173;28;20514;-51
2022/10/31 11:24:08;;;;;;;33.17;28.88;;;21.30;99.90;;;;;;5069622;28;20025;-51
2022/10/31 11:26:37;;;;;;;33.58;29.30;;;21.00;99.90;;;;;;5085734;28;20082;-53
2022/10/31 11:29:04;;;;;;;44.00;39.00;;;20.90;99.90;;;;;;5076434;28;20048;-52
2022/10/31 11:31:30;;;;;;;33.63;27.88;;;21.70;99.90;;;;;;5056529;28;21187;-52
2022/10/31 11:34:14;;;;;;;31.48;28.00;;;22.00;99.90;;;;;;5073705;28;20116;-51
2022/10/31 11:36:44;;;;;;;32.22;28.20;;;22.20;99.90;;;;;;5060655;28;20633;-52
2022/10/31 11:39:22;;;;;;;31.05;27.58;;;21.70;99.90;;;;;;5091018;28;20029;-52
2022/10/31 11:41:50;;;;;;;32.05;26.60;;;22.80;99.90;;;;;;5074439;28;20052;-51
2022/10/31 11:44:29;;;;;;;32.80;27.58;;;22.90;99.90;;;;;;5070260;28;20438;-52
2022/10/31 11:46:58;;;;;;;31.20;26.02;;;;;;;;;;5074132;28;20029;-55
2022/10/31 11:49:27;;;;;;;32.22;28.73;;;;;;;;;;5075141;28;20036;-52
2022/10/31 11:51:57;;;;;;;32.58;27.05;;;23.20;99.90;;;;;;5073234;28;20476;-53
2022/10/31 11:54:31;;;;;;;33.20;28.00;;;23.00;99.90;;;;;;5073385;28;20041;-51
2022/10/31 11:56:57;;;;;;;32.25;27.30;;;23.20;99.90;;;;;;5071445;28;20037;-52
2022/10/31 11:59:28;;;;;;;31.50;27.20;;;23.30;99.90;;;;;;5075785;28;20054;-52
2022/10/31 12:01:55;;;;;;;31.92;28.45;;;23.00;99.90;;;;;;5073807;28;20111;-52
2022/10/31 12:04:33;;;;;;;31.98;28.58;;;23.40;99.90;;;;;;5072561;28;20154;-51
2022/10/31 12:06:59;;;;;;;31.08;27.88;;;;;;;;;;5071670;28;20048;-52
2022/10/31 12:09:30;;;;;;;34.05;29.23;;;23.40;99.90;;;;;;5073927;28;20091;-52
2022/10/31 12:12:25;;;;;;;33.53;28.65;;;23.70;99.90;;;;;;5070814;28;20495;-53
2022/10/31 12:15:00;;;;;;;30.25;27.00;;;23.80;99.90;;;;;;5084946;28;20047;-54
2022/10/31 12:17:30;;;;;;;34.00;30.25;;;23.80;99.90;;;;;;5089408;28;20388;-52
2022/10/31 12:20:19;;;;;;;34.70;29.27;;;23.10;99.90;;;;;;5070573;28;20585;-52
2022/10/31 12:23:06;;;;;;;34.20;28.38;;;22.70;99.90;;;;;;5082952;28;20059;-51
2022/10/31 12:25:46;;;;;;;29.92;26.50;;;23.10;99.90;;;;;;5065144;28;20056;-53
2022/10/31 12:28:35;;;;;;;30.60;27.30;;;23.10;99.90;;;;;;5071511;28;20040;-54
2022/10/31 12:31:12;;;;;;;32.90;27.10;;;23.20;99.90;;;;;;5071119;28;20059;-53
2022/10/31 12:33:55;;;;;;;32.20;27.55;;;23.20;99.90;;;;;;5070434;28;20028;-53
2022/10/31 12:36:42;;;;;;;32.25;27.17;;;23.30;99.90;;;;;;5069527;28;20036;-55
2022/10/31 12:39:29;;;;;;;31.45;27.90;;;22.90;99.90;;;;;;5073015;28;20165;-54
2022/10/31 12:42:22;;;;;;;32.13;28.40;;;22.80;99.90;;;;;;5068260;28;20122;-54
2022/10/31 12:45:17;;;;;;;32.72;28.48;;;23.20;99.90;;;;;;5067752;28;20055;-54
2022/10/31 12:47:51;;;;;;;34.67;27.77;;;23.30;99.90;;;;;;5065566;28;20048;-55
2022/10/31 12:50:35;;;;;;;37.88;28.80;;;23.10;99.90;;;;;;5071297;28;20530;-55
2022/10/31 12:53:07;;;;;;;33.28;27.13;;;23.20;99.90;;;;;;5086499;28;20108;-55
2022/10/31 12:55:42;;;;;;;29.95;25.75;;;23.40;99.90;;;;;;5072823;28;20448;-55
2022/10/31 12:58:17;;;;;;;28.67;24.98;;;23.60;99.90;;;;;;5071393;28;20118;-54
2022/10/31 13:00:48;;;;;;;31.38;25.80;;;24.00;99.90;;;;;;5067172;28;20033;-55
2022/10/31 13:03:22;;;;;;;30.13;26.88;;;23.70;99.90;;;;;;5073011;28;20482;-54
2022/10/31 13:06:05;;;;;;;29.40;24.52;;;;;;;;;;5071462;28;20036;-53
2022/10/31 13:08:40;;;;;;;30.38;24.88;;;23.40;99.90;;;;;;5039245;28;20101;-54
2022/10/31 13:11:16;;;;;;;27.75;24.35;;;23.60;99.90;;;;;;5065339;28;20025;-54
2022/10/31 13:13:58;;;;;;;29.38;24.50;;;23.70;99.90;;;;;;5071484;28;20082;-54
2022/10/31 13:16:33;;;;;;;;;;;23.00;99.90;;;;;;5074364;28;20036;-56
2022/10/31 13:19:16;;;;;;;30.95;25.17;;;23.10;99.90;;;;;;5088754;28;19912;-55
2022/10/31 13:22:03;;;;;;;29.95;25.13;;;23.10;99.90;;;;;;5067190;28;20024;-53
2022/10/31 13:24:44;;;;;;;28.77;25.67;;;23.30;99.90;;;;;;5071914;28;20028;-55
2022/10/31 13:27:33;;;;;;;29.55;25.75;;;23.30;99.90;;;;;;5067443;28;20524;-53
2022/10/31 13:30:02;;;;;;;30.52;27.17;;;23.10;99.90;;;;;;5066105;28;20032;-54
2022/10/31 13:32:38;;;;;;;30.13;26.77;;;23.00;99.90;;;;;;5072847;28;20116;-57
2022/10/31 13:35:08;;;;;;;32.33;27.50;;;23.10;99.90;;;;;;5072118;28;20036;-55
2022/10/31 13:37:41;;;;;;;36.63;29.73;;;23.20;99.90;;;;;;5043024;28;20033;-53
2022/10/31 13:40:27;;;;;;;37.28;32.47;;;22.90;99.90;;;;;;5098963;28;20385;-53
2022/10/31 13:42:53;;;;;;;40.17;32.63;;;;;;;;;;5069056;28;20032;-55